Time;durP1;ratioP1;P1;durP2;ratioP2;P2;SDS_P1;SDS_P2;PMS_P1;PMS_P2;Temp;Humidity;BMP_temperature;BMP_pressure;BME280_temperature;BME280_humidity;BME280_pressure;Samples;Min_cycle;Max_cycle;Signal;HPM_P1;HPM_P2
2023/05/23 00:00:04;;;;;;;23.47;20.43;;;16.40;99.90;;;;;;5114529;28;20452;-60
2023/05/23 00:02:31;;;;;;;22.50;20.10;;;16.40;99.90;;;;;;5115360;28;20938;-61
2023/05/23 00:05:02;;;;;;;22.63;19.23;;;16.40;99.90;;;;;;5114440;28;20495;-61
2023/05/23 00:07:31;;;;;;;23.30;19.20;;;16.40;99.90;;;;;;5114141;28;20434;-61
2023/05/23 00:09:58;;;;;;;22.13;18.13;;;16.50;99.90;;;;;;5114053;28;20449;-61
2023/05/23 00:12:24;;;;;;;21.43;17.70;;;16.50;99.90;;;;;;5114341;28;20469;-62
2023/05/23 00:14:52;;;;;;;22.67;19.60;;;16.50;99.90;;;;;;5114444;28;20441;-61
2023/05/23 00:17:20;;;;;;;22.43;19.17;;;16.50;99.90;;;;;;5113810;28;20469;-62
2023/05/23 00:19:47;;;;;;;19.27;17.27;;;16.50;99.90;;;;;;5114199;28;20445;-61
2023/05/23 00:22:16;;;;;;;19.53;16.90;;;16.50;99.90;;;;;;5114432;28;20545;-61
2023/05/23 00:24:43;;;;;;;20.67;18.47;;;16.50;99.90;;;;;;5113717;28;20453;-62
2023/05/23 00:27:10;;;;;;;18.20;16.33;;;16.50;99.90;;;;;;5115995;28;20434;-62
2023/05/23 00:29:37;;;;;;;18.10;16.30;;;16.50;99.90;;;;;;5118027;28;20446;-61
2023/05/23 00:32:04;;;;;;;22.43;19.50;;;16.50;99.90;;;;;;5118035;28;20461;-61
2023/05/23 00:34:31;;;;;;;23.10;18.80;;;16.50;99.90;;;;;;5117310;28;20447;-62
2023/05/23 00:36:58;;;;;;;22.40;20.10;;;16.50;99.90;;;;;;5117580;28;20472;-61
2023/05/23 00:39:26;;;;;;;23.67;20.07;;;16.50;99.90;;;;;;5117965;28;20452;-61
2023/05/23 00:41:53;;;;;;;24.00;21.33;;;16.50;99.90;;;;;;5117987;28;20471;-61
2023/05/23 00:44:20;;;;;;;30.40;26.70;;;16.40;99.90;;;;;;5117922;28;20445;-60
2023/05/23 00:46:50;;;;;;;34.90;29.10;;;16.40;99.90;;;;;;5118201;28;20433;-59
2023/05/23 00:49:18;;;;;;;35.33;29.90;;;16.40;99.90;;;;;;5117246;28;20983;-60
2023/05/23 00:51:45;;;;;;;39.73;30.90;;;16.40;99.90;;;;;;5117514;28;20461;-61
2023/05/23 00:54:15;;;;;;;39.77;31.33;;;16.30;99.90;;;;;;5118819;28;20939;-61
2023/05/23 00:56:43;;;;;;;46.30;34.47;;;16.30;99.90;;;;;;5117695;28;20481;-61
2023/05/23 00:59:10;;;;;;;43.50;34.00;;;16.30;99.90;;;;;;5118450;28;20445;-60
2023/05/23 01:01:37;;;;;;;46.43;37.47;;;16.20;99.90;;;;;;5118244;28;20461;-59
2023/05/23 01:04:05;;;;;;;44.00;36.80;;;16.20;99.90;;;;;;5117875;28;20441;-61
2023/05/23 01:06:32;;;;;;;48.20;39.43;;;16.10;99.90;;;;;;5117913;28;20445;-60
2023/05/23 01:09:01;;;;;;;51.73;39.00;;;16.10;99.90;;;;;;5117788;28;20445;-61
2023/05/23 01:11:34;;;;;;;51.57;39.40;;;16.00;99.90;;;;;;5117364;28;20471;-61
2023/05/23 01:14:07;;;;;;;47.27;37.87;;;16.00;99.90;;;;;;5117312;28;20925;-61
2023/05/23 01:16:47;;;;;;;53.80;39.33;;;15.90;99.90;;;;;;5117107;28;20472;-61
2023/05/23 01:19:26;;;;;;;48.03;38.67;;;15.80;99.90;;;;;;5117137;28;20795;-62
2023/05/23 01:21:55;;;;;;;43.93;38.83;;;15.70;99.90;;;;;;5116515;28;20473;-60
2023/05/23 01:24:36;;;;;;;54.83;40.67;;;15.60;99.90;;;;;;5117002;28;20448;-61
2023/05/23 01:27:13;;;;;;;45.07;35.17;;;15.50;99.90;;;;;;5116764;28;20421;-61
2023/05/23 01:29:45;;;;;;;46.67;39.67;;;15.50;99.90;;;;;;5116685;28;21001;-61
2023/05/23 01:32:15;;;;;;;43.73;36.87;;;15.40;99.90;;;;;;5116450;28;20457;-60
2023/05/23 01:34:43;;;;;;;45.40;35.50;;;15.40;99.90;;;;;;5116609;28;20441;-61
2023/05/23 01:37:13;;;;;;;45.77;34.13;;;15.30;99.90;;;;;;5116250;28;20477;-61
2023/05/23 01:39:40;;;;;;;48.63;33.63;;;15.30;99.90;;;;;;5116480;28;20456;-60
2023/05/23 01:42:08;;;;;;;39.90;31.00;;;15.20;99.90;;;;;;5117135;28;20457;-61
2023/05/23 01:44:35;;;;;;;35.93;30.77;;;15.20;99.90;;;;;;5117333;28;20451;-61
2023/05/23 01:47:07;;;;;;;36.63;30.60;;;15.10;99.90;;;;;;5117654;28;20524;-61
2023/05/23 01:49:34;;;;;;;38.13;27.30;;;15.10;99.90;;;;;;5117807;28;20422;-61
2023/05/23 01:52:02;;;;;;;35.30;26.73;;;15.00;99.90;;;;;;5116165;28;20462;-61
2023/05/23 01:54:31;;;;;;;30.13;26.93;;;14.90;99.90;;;;;;5115645;28;20448;-61
2023/05/23 01:56:59;;;;;;;34.50;27.37;;;14.90;99.90;;;;;;5115906;28;20480;-61
2023/05/23 01:59:26;;;;;;;32.63;27.10;;;14.80;99.90;;;;;;5115937;28;20545;-61
2023/05/23 02:01:53;;;;;;;30.63;26.23;;;14.80;99.90;;;;;;5115749;28;20457;-61
2023/05/23 02:04:21;;;;;;;30.03;26.83;;;14.80;99.90;;;;;;5115815;28;20445;-61
2023/05/23 02:06:48;;;;;;;32.23;26.67;;;14.70;99.90;;;;;;5115929;28;20460;-60
2023/05/23 02:09:15;;;;;;;30.60;26.50;;;14.70;99.90;;;;;;5115927;28;20535;-60
2023/05/23 02:11:42;;;;;;;34.23;27.67;;;14.70;99.90;;;;;;5115760;28;20465;-60
2023/05/23 02:14:11;;;;;;;28.80;25.63;;;14.70;99.90;;;;;;5115536;28;20957;-60
2023/05/23 02:16:38;;;;;;;29.33;23.33;;;14.70;99.90;;;;;;5115619;28;20477;-59
2023/05/23 02:19:05;;;;;;;29.20;24.43;;;14.70;99.90;;;;;;5115812;28;20471;-60
2023/05/23 02:21:33;;;;;;;28.57;24.50;;;14.70;99.90;;;;;;5115417;28;20501;-60
2023/05/23 02:24:00;;;;;;;26.20;22.40;;;14.70;99.90;;;;;;5116026;28;20442;-60
2023/05/23 02:26:27;;;;;;;26.17;22.30;;;14.70;99.90;;;;;;5116216;28;20452;-61
2023/05/23 02:28:53;;;;;;;26.63;19.97;;;14.60;99.90;;;;;;5116540;28;20548;-60
2023/05/23 02:31:20;;;;;;;24.97;20.70;;;14.60;99.90;;;;;;5116214;28;20493;-60
2023/05/23 02:33:47;;;;;;;23.20;20.70;;;14.50;99.90;;;;;;5115632;28;20792;-60
2023/05/23 02:36:14;;;;;;;23.07;20.03;;;14.50;99.90;;;;;;5116009;28;20444;-60
2023/05/23 02:38:42;;;;;;;22.20;19.33;;;14.50;99.90;;;;;;5115345;28;20823;-60
2023/05/23 02:41:09;;;;;;;23.20;18.97;;;14.50;99.90;;;;;;5115164;28;20462;-61
2023/05/23 02:43:36;;;;;;;22.00;17.03;;;14.40;99.90;;;;;;5115148;28;20449;-60
2023/05/23 02:46:03;;;;;;;20.07;17.20;;;14.50;99.90;;;;;;5114989;28;20447;-60
2023/05/23 02:48:29;;;;;;;21.37;17.30;;;14.40;99.90;;;;;;5114923;28;20438;-61
2023/05/23 02:50:56;;;;;;;20.20;16.37;;;14.40;99.90;;;;;;5113775;28;20468;-61
2023/05/23 02:53:23;;;;;;;19.50;17.03;;;14.40;99.90;;;;;;5114912;28;20541;-60
2023/05/23 02:55:51;;;;;;;20.83;16.73;;;14.30;99.90;;;;;;5114798;28;20438;-60
2023/05/23 02:58:19;;;;;;;20.13;16.53;;;14.30;99.90;;;;;;5114876;28;20477;-59
2023/05/23 03:00:46;;;;;;;19.43;16.60;;;14.30;99.90;;;;;;5114820;28;20592;-60
2023/05/23 03:03:13;;;;;;;21.90;17.23;;;14.30;99.90;;;;;;5114299;28;20455;-59
2023/05/23 03:05:40;;;;;;;19.60;15.97;;;14.20;99.90;;;;;;5114594;28;20467;-60
2023/05/23 03:08:07;;;;;;;21.80;18.27;;;14.20;99.90;;;;;;5114284;28;20449;-60
2023/05/23 03:10:34;;;;;;;18.57;16.57;;;14.20;99.90;;;;;;5114395;28;20963;-60
2023/05/23 03:13:02;;;;;;;19.43;16.20;;;14.20;99.90;;;;;;5114781;28;20441;-61
2023/05/23 03:15:29;;;;;;;26.03;18.93;;;14.20;99.90;;;;;;5114573;28;20815;-62
2023/05/23 03:17:56;;;;;;;21.50;19.10;;;14.20;99.90;;;;;;5113983;28;21073;-60
2023/05/23 03:20:23;;;;;;;23.77;18.80;;;14.10;99.90;;;;;;5114256;28;20452;-60
2023/05/23 03:22:49;;;;;;;21.10;18.83;;;14.20;99.90;;;;;;5114615;28;20417;-60
2023/05/23 03:25:16;;;;;;;22.90;17.67;;;14.10;99.90;;;;;;5114463;28;20828;-59
2023/05/23 03:27:43;;;;;;;25.87;20.37;;;14.20;99.90;;;;;;5114279;28;20444;-61
2023/05/23 03:30:12;;;;;;;23.10;19.83;;;14.20;99.90;;;;;;5114252;28;20452;-59
2023/05/23 03:32:39;;;;;;;25.07;20.47;;;14.20;99.90;;;;;;5114035;28;20930;-60
2023/05/23 03:35:07;;;;;;;27.00;20.80;;;14.20;99.90;;;;;;5114174;28;20437;-60
2023/05/23 03:37:34;;;;;;;22.77;19.50;;;14.20;99.90;;;;;;5114148;28;20477;-60
2023/05/23 03:40:01;;;;;;;26.03;21.57;;;14.10;99.90;;;;;;5113804;28;20442;-59
2023/05/23 03:42:28;;;;;;;25.07;22.50;;;14.20;99.90;;;;;;5114060;28;20468;-60
2023/05/23 03:44:55;;;;;;;28.83;22.23;;;14.10;99.90;;;;;;5114112;28;20437;-60
2023/05/23 03:47:23;;;;;;;24.60;21.60;;;14.10;99.90;;;;;;5114056;28;20815;-60
2023/05/23 03:49:50;;;;;;;24.53;19.73;;;14.10;99.90;;;;;;5114333;28;20445;-59
2023/05/23 03:52:17;;;;;;;24.27;21.57;;;14.10;99.90;;;;;;5114062;28;20561;-60
2023/05/23 03:54:44;;;;;;;22.60;19.97;;;14.10;99.90;;;;;;5113781;28;20449;-60
2023/05/23 03:57:11;;;;;;;24.60;21.43;;;14.00;99.90;;;;;;5113934;28;20481;-60
2023/05/23 03:59:37;;;;;;;25.20;21.07;;;14.00;99.90;;;;;;5113910;28;20452;-60
2023/05/23 04:02:04;;;;;;;22.00;18.50;;;14.00;99.90;;;;;;5113134;28;20986;-60
2023/05/23 04:04:33;;;;;;;21.30;18.43;;;14.00;99.90;;;;;;5113977;28;20442;-59
2023/05/23 04:07:00;;;;;;;23.20;18.53;;;14.00;99.90;;;;;;5113478;28;20455;-61
2023/05/23 04:11:44;;;;;;;20.10;16.67;;;14.10;99.90;;;;;;5091067;27;20604;-59
2023/05/23 04:14:11;;;;;;;21.23;16.87;;;14.10;99.90;;;;;;5090260;28;20447;-59
2023/05/23 04:16:40;;;;;;;21.60;17.60;;;14.10;99.90;;;;;;5091133;28;20481;-59
2023/05/23 04:19:07;;;;;;;19.60;16.80;;;14.10;99.90;;;;;;5090248;28;20442;-60
2023/05/23 04:21:34;;;;;;;21.70;16.47;;;14.20;99.90;;;;;;5090395;28;20462;-60
2023/05/23 04:24:01;;;;;;;17.80;14.87;;;14.20;99.90;;;;;;5090857;28;20446;-60
2023/05/23 04:26:28;;;;;;;18.63;16.73;;;14.20;99.90;;;;;;5090255;28;20826;-60
2023/05/23 04:28:58;;;;;;;17.03;15.23;;;14.30;99.90;;;;;;5090143;28;20545;-60
2023/05/23 04:31:25;;;;;;;15.57;13.60;;;14.30;99.90;;;;;;5090306;28;20483;-60
2023/05/23 04:33:55;;;;;;;15.40;13.73;;;14.30;99.90;;;;;;5092612;28;20442;-60
2023/05/23 04:36:22;;;;;;;16.10;14.07;;;14.30;99.90;;;;;;5090084;28;20442;-60
2023/05/23 04:38:49;;;;;;;15.40;13.00;;;14.30;99.90;;;;;;5090272;28;20450;-59
2023/05/23 04:41:16;;;;;;;13.70;12.03;;;14.30;99.90;;;;;;5090129;28;20459;-61
2023/05/23 04:43:43;;;;;;;15.10;12.47;;;14.30;99.90;;;;;;5090392;28;20439;-59
2023/05/23 04:46:12;;;;;;;15.37;12.30;;;14.30;99.90;;;;;;5090135;28;20451;-60
2023/05/23 04:48:39;;;;;;;13.90;11.67;;;14.30;99.90;;;;;;5090299;28;20526;-60
2023/05/23 04:51:06;;;;;;;14.50;11.93;;;14.30;99.90;;;;;;5089824;28;20493;-59
2023/05/23 04:53:33;;;;;;;13.50;11.60;;;14.30;99.90;;;;;;5090068;28;20803;-59
2023/05/23 04:56:01;;;;;;;13.03;11.17;;;14.20;99.90;;;;;;5089989;28;20453;-60
2023/05/23 04:58:28;;;;;;;14.70;11.70;;;14.30;99.90;;;;;;5090013;28;20542;-59
2023/05/23 05:00:54;;;;;;;13.50;11.87;;;14.30;99.90;;;;;;5089601;28;20462;-60
2023/05/23 05:03:23;;;;;;;13.60;12.13;;;14.20;99.90;;;;;;5091497;28;20446;-62
2023/05/23 05:05:50;;;;;;;13.67;10.33;;;14.10;99.90;;;;;;5091431;28;20453;-62
2023/05/23 05:08:18;;;;;;;13.87;11.83;;;14.10;99.90;;;;;;5092027;28;20449;-62
2023/05/23 05:10:45;;;;;;;14.87;12.70;;;14.00;99.90;;;;;;5091246;28;20486;-62
2023/05/23 05:13:12;;;;;;;14.03;11.50;;;14.10;99.90;;;;;;5090794;28;20446;-62
2023/05/23 05:15:39;;;;;;;17.67;12.50;;;14.10;99.90;;;;;;5090441;28;20443;-62
2023/05/23 05:18:06;;;;;;;14.60;12.03;;;14.10;99.90;;;;;;5090412;28;20519;-63
2023/05/23 05:20:34;;;;;;;13.30;11.23;;;14.00;99.90;;;;;;5090818;28;20462;-62
2023/05/23 05:23:01;;;;;;;14.47;12.00;;;14.00;99.90;;;;;;5077371;28;20447;-63
2023/05/23 05:25:30;;;;;;;15.60;12.37;;;14.00;99.90;;;;;;5077117;28;20443;-62
2023/05/23 05:27:57;;;;;;;15.20;13.37;;;14.00;99.90;;;;;;5077633;28;20443;-63
2023/05/23 05:30:24;;;;;;;12.47;10.43;;;14.00;99.90;;;;;;5077846;28;21011;-64
2023/05/23 05:32:51;;;;;;;14.30;12.80;;;13.90;99.90;;;;;;5078231;28;20453;-63
2023/05/23 05:35:18;;;;;;;16.80;13.00;;;13.90;99.90;;;;;;5076755;28;20442;-62
2023/05/23 05:37:46;;;;;;;15.00;12.57;;;13.80;99.90;;;;;;5076311;28;20443;-63
2023/05/23 05:40:13;;;;;;;15.60;12.10;;;13.90;99.90;;;;;;5076024;28;20443;-61
2023/05/23 05:42:40;;;;;;;18.40;13.17;;;13.80;99.90;;;;;;5076613;28;20471;-63
2023/05/23 05:45:07;;;;;;;16.87;13.30;;;13.80;99.90;;;;;;5076139;28;20439;-62
2023/05/23 05:47:35;;;;;;;14.03;12.53;;;13.70;99.90;;;;;;5075687;28;20932;-62
2023/05/23 05:50:03;;;;;;;17.20;12.70;;;13.70;99.90;;;;;;5075352;28;20952;-63
2023/05/23 05:52:29;;;;;;;21.30;13.00;;;13.80;99.90;;;;;;5076540;28;20493;-62
2023/05/23 05:54:58;;;;;;;14.40;12.43;;;13.80;99.90;;;;;;5076068;28;20874;-61
2023/05/23 05:57:24;;;;;;;16.63;12.10;;;13.80;99.90;;;;;;5075939;28;20453;-61
2023/05/23 05:59:51;;;;;;;13.43;12.10;;;13.80;99.90;;;;;;5075995;28;20458;-62
2023/05/23 06:02:18;;;;;;;16.93;12.20;;;13.80;99.90;;;;;;5075787;28;20459;-62
2023/05/23 06:04:45;;;;;;;14.93;11.30;;;13.80;99.90;;;;;;5075284;28;20455;-63
2023/05/23 06:07:11;;;;;;;15.00;13.20;;;13.80;99.90;;;;;;5075199;28;20439;-63
2023/05/23 06:09:38;;;;;;;14.07;12.67;;;13.70;99.90;;;;;;5074501;28;20459;-64
2023/05/23 06:12:07;;;;;;;16.13;12.40;;;13.70;99.90;;;;;;5075288;28;21071;-64
2023/05/23 06:14:34;;;;;;;16.27;14.13;;;13.70;99.90;;;;;;5075376;28;20447;-64
2023/05/23 06:17:00;;;;;;;19.13;14.70;;;13.70;99.90;;;;;;5075445;28;20447;-62
2023/05/23 06:19:27;;;;;;;15.90;13.20;;;13.70;99.90;;;;;;5075512;28;20971;-62
2023/05/23 06:21:54;;;;;;;18.07;15.40;;;13.70;99.90;;;;;;5075854;28;20525;-61
2023/05/23 06:24:21;;;;;;;16.00;13.80;;;13.70;99.90;;;;;;5075686;28;20440;-63
2023/05/23 06:26:48;;;;;;;16.10;14.40;;;13.70;99.90;;;;;;5075481;28;20524;-63
2023/05/23 06:29:16;;;;;;;17.73;13.60;;;13.70;99.90;;;;;;5075450;28;20447;-62
2023/05/23 06:31:43;;;;;;;17.67;15.50;;;13.70;99.90;;;;;;5075258;28;20489;-61
2023/05/23 06:34:10;;;;;;;16.97;15.17;;;13.70;99.90;;;;;;5073739;28;20447;-61
2023/05/23 06:36:36;;;;;;;16.70;13.43;;;13.80;99.90;;;;;;5075085;28;20448;-62
2023/05/23 06:39:03;;;;;;;17.50;12.87;;;13.80;99.90;;;;;;5075401;28;20451;-62
2023/05/23 06:41:30;;;;;;;15.57;13.07;;;13.80;99.90;;;;;;5074572;28;20463;-62
2023/05/23 06:43:57;;;;;;;14.37;11.50;;;13.70;99.90;;;;;;5074584;28;20439;-63
2023/05/23 06:46:25;;;;;;;14.33;12.43;;;13.70;99.90;;;;;;5074268;28;20451;-62
2023/05/23 06:48:52;;;;;;;11.17;10.10;;;13.70;99.90;;;;;;5074591;28;20473;-63
2023/05/23 06:51:18;;;;;;;11.47;9.97;;;13.70;99.90;;;;;;5074889;28;20510;-63
2023/05/23 06:53:45;;;;;;;11.70;10.33;;;13.70;99.90;;;;;;5074659;28;20448;-62
2023/05/23 06:56:12;;;;;;;11.17;10.07;;;13.60;99.90;;;;;;5074865;28;20540;-62
2023/05/23 06:58:40;;;;;;;11.60;10.10;;;13.60;99.90;;;;;;5074816;28;20814;-62
2023/05/23 07:01:06;;;;;;;11.57;10.37;;;13.60;99.90;;;;;;5074572;28;21008;-62
2023/05/23 07:03:37;;;;;;;11.57;10.47;;;13.60;99.90;;;;;;5074955;28;20458;-62
2023/05/23 07:06:04;;;;;;;10.80;9.70;;;13.60;99.90;;;;;;5074365;28;20458;-62
2023/05/23 07:08:30;;;;;;;11.60;10.50;;;13.60;99.90;;;;;;5073987;28;20440;-62
2023/05/23 07:10:57;;;;;;;12.20;10.13;;;13.50;99.90;;;;;;5074030;28;20499;-62
2023/05/23 07:13:24;;;;;;;12.27;9.43;;;13.50;99.90;;;;;;5073750;28;20447;-62
2023/05/23 07:16:22;;;;;;;10.63;9.57;;;13.50;99.90;;;;;;5075556;28;20447;-63
2023/05/23 07:18:50;;;;;;;9.73;8.83;;;13.50;99.90;;;;;;5073898;28;20452;-62
2023/05/23 07:21:16;;;;;;;10.10;8.70;;;13.50;99.90;;;;;;5073941;28;20470;-62
2023/05/23 07:23:43;;;;;;;10.27;8.80;;;13.50;99.90;;;;;;5073769;28;20455;-62
2023/05/23 07:26:10;;;;;;;10.33;9.33;;;13.50;99.90;;;;;;5073459;28;20447;-62
2023/05/23 07:28:37;;;;;;;11.27;8.17;;;13.50;99.90;;;;;;5073280;28;20443;-62
2023/05/23 07:31:04;;;;;;;9.93;8.90;;;13.40;99.90;;;;;;5073275;28;20482;-64
2023/05/23 07:33:33;;;;;;;8.50;7.60;;;13.40;99.90;;;;;;5072985;28;20448;-63
2023/05/23 07:36:01;;;;;;;7.97;6.20;;;13.40;99.90;;;;;;5073096;28;21006;-63
2023/05/23 07:38:28;;;;;;;8.40;6.93;;;13.40;99.90;;;;;;5073218;28;20450;-63
2023/05/23 07:40:55;;;;;;;8.33;7.60;;;13.40;99.90;;;;;;5073421;28;20459;-63
2023/05/23 07:43:22;;;;;;;7.93;7.17;;;13.30;99.90;;;;;;5073137;28;20451;-61
2023/05/23 07:45:48;;;;;;;8.60;7.73;;;13.30;99.90;;;;;;5073039;28;20440;-62
2023/05/23 07:48:15;;;;;;;8.17;7.03;;;13.30;99.90;;;;;;5073067;28;20534;-61
2023/05/23 07:50:42;;;;;;;7.90;7.10;;;13.20;99.90;;;;;;5073042;28;20478;-62
2023/05/23 07:53:10;;;;;;;8.17;7.47;;;13.20;99.90;;;;;;5072771;28;20449;-63
2023/05/23 07:55:37;;;;;;;9.20;8.30;;;13.20;99.90;;;;;;5072647;28;20447;-62
2023/05/23 07:58:04;;;;;;;9.10;8.20;;;13.10;99.90;;;;;;5073015;28;20554;-63
2023/05/23 08:00:31;;;;;;;12.00;9.57;;;13.10;99.90;;;;;;5073026;28;20486;-62
2023/05/23 08:02:57;;;;;;;11.93;9.67;;;13.10;99.90;;;;;;5073973;28;20447;-64
2023/05/23 08:05:24;;;;;;;12.47;9.80;;;13.00;99.90;;;;;;5075700;28;20898;-64
2023/05/23 08:07:53;;;;;;;9.97;9.07;;;12.90;99.90;;;;;;5075843;28;20439;-62
2023/05/23 08:10:21;;;;;;;11.03;9.83;;;12.90;99.90;;;;;;5074194;28;20550;-64
2023/05/23 08:12:48;;;;;;;14.17;10.57;;;12.80;99.90;;;;;;5073214;28;20475;-63
2023/05/23 08:15:15;;;;;;;11.43;10.10;;;12.80;99.90;;;;;;5074935;28;20443;-63
2023/05/23 08:17:41;;;;;;;11.83;10.57;;;12.70;99.90;;;;;;5073699;28;20462;-63
2023/05/23 08:20:10;;;;;;;13.60;11.53;;;12.70;99.90;;;;;;5072875;28;20933;-62
2023/05/23 08:22:37;;;;;;;14.00;12.10;;;12.60;99.90;;;;;;5073158;28;20466;-61
2023/05/23 08:25:05;;;;;;;18.80;13.10;;;12.60;99.90;;;;;;5073161;28;20454;-63
2023/05/23 08:27:34;;;;;;;19.20;14.63;;;12.60;99.90;;;;;;5073891;28;20560;-63
2023/05/23 08:30:02;;;;;;;19.30;13.17;;;12.60;99.90;;;;;;5073696;28;20451;-63
2023/05/23 08:32:29;;;;;;;13.30;11.40;;;12.60;99.90;;;;;;5074628;28;20479;-63
2023/05/23 08:34:56;;;;;;;16.80;11.33;;;12.60;99.90;;;;;;5074327;28;20442;-62
2023/05/23 08:37:22;;;;;;;19.03;13.67;;;12.60;99.90;;;;;;5073126;28;20447;-62
2023/05/23 08:39:51;;;;;;;15.63;11.73;;;12.60;99.90;;;;;;5073162;28;20570;-63
2023/05/23 08:42:17;;;;;;;17.23;11.67;;;12.50;99.90;;;;;;5072932;28;20526;-62
2023/05/23 08:44:46;;;;;;;24.53;13.47;;;12.50;99.90;;;;;;5073121;28;20443;-61
2023/05/23 08:47:16;;;;;;;17.60;12.23;;;12.50;99.90;;;;;;5073393;28;20440;-63
2023/05/23 08:49:45;;;;;;;14.60;11.10;;;12.50;99.90;;;;;;5073059;28;20435;-62
2023/05/23 08:52:13;;;;;;;12.13;9.83;;;12.50;99.90;;;;;;5072901;28;20487;-61
2023/05/23 08:54:42;;;;;;;14.37;10.40;;;12.50;99.90;;;;;;5072966;28;20533;-61
2023/05/23 08:57:10;;;;;;;13.17;10.10;;;12.40;99.90;;;;;;5074078;28;20455;-61
2023/05/23 08:59:38;;;;;;;18.13;11.57;;;12.40;99.90;;;;;;5076280;28;20487;-61
2023/05/23 09:02:10;;;;;;;16.30;11.10;;;12.40;99.90;;;;;;5075973;28;20459;-61
2023/05/23 09:04:37;;;;;;;13.80;10.63;;;12.40;99.90;;;;;;5076344;28;20427;-61
2023/05/23 09:07:05;;;;;;;23.37;13.33;;;12.30;99.90;;;;;;5076257;28;20447;-62
2023/05/23 09:09:32;;;;;;;17.97;13.07;;;12.30;99.90;;;;;;5075615;28;20450;-60
2023/05/23 09:11:59;;;;;;;21.80;11.63;;;12.20;99.90;;;;;;5075757;28;20855;-61
2023/05/23 09:14:29;;;;;;;18.43;13.70;;;12.20;99.90;;;;;;5076680;28;20486;-61
2023/05/23 09:17:00;;;;;;;22.40;14.03;;;12.20;99.90;;;;;;5075438;28;20934;-60
2023/05/23 09:19:29;;;;;;;20.27;12.60;;;12.20;99.90;;;;;;5075755;28;20428;-60
2023/05/23 09:21:56;;;;;;;17.83;12.03;;;12.20;99.90;;;;;;5075847;28;20466;-61
2023/05/23 09:24:23;;;;;;;17.57;12.70;;;12.20;99.90;;;;;;5075675;28;20529;-60
2023/05/23 09:26:50;;;;;;;24.80;14.03;;;12.20;99.90;;;;;;5075486;28;20443;-62
2023/05/23 09:29:20;;;;;;;18.00;11.73;;;12.20;99.90;;;;;;5076290;28;20561;-59
2023/05/23 09:31:47;;;;;;;19.30;13.43;;;12.10;99.90;;;;;;5077017;28;20536;-60
2023/05/23 09:34:14;;;;;;;16.60;12.50;;;12.10;99.90;;;;;;5076947;28;20444;-58
2023/05/23 09:36:43;;;;;;;27.67;12.83;;;12.10;99.90;;;;;;5076311;28;20451;-58
2023/05/23 09:39:12;;;;;;;20.10;10.70;;;12.10;99.90;;;;;;5077020;28;20443;-61
2023/05/23 09:41:39;;;;;;;17.67;11.70;;;12.10;99.90;;;;;;5075428;28;21011;-60
2023/05/23 09:44:08;;;;;;;18.73;11.90;;;12.10;99.90;;;;;;5076257;28;20439;-60
2023/05/23 09:46:37;;;;;;;15.43;10.90;;;12.10;99.90;;;;;;5076131;28;20447;-60
2023/05/23 09:49:14;;;;;;;22.73;12.00;;;12.10;99.90;;;;;;5076243;28;20443;-60
2023/05/23 09:51:42;;;;;;;15.80;11.87;;;12.00;99.90;;;;;;5075267;28;21014;-61
2023/05/23 09:54:09;;;;;;;18.40;13.23;;;12.00;99.90;;;;;;5074763;28;20505;-60
2023/05/23 09:56:42;;;;;;;17.83;12.93;;;12.00;99.90;;;;;;5075561;28;20569;-58
2023/05/23 09:59:12;;;;;;;13.80;11.87;;;12.00;99.90;;;;;;5079405;28;20959;-61
2023/05/23 10:01:41;;;;;;;16.63;12.90;;;12.00;99.90;;;;;;5075178;28;20460;-61
2023/05/23 10:04:09;;;;;;;18.87;13.17;;;12.00;99.90;;;;;;5075072;28;20475;-61
2023/05/23 10:06:45;;;;;;;16.13;13.00;;;12.00;99.90;;;;;;5074806;28;20453;-62
2023/05/23 10:09:16;;;;;;;12.53;9.03;;;12.00;99.90;;;;;;5081215;28;20427;-60
2023/05/23 10:12:39;;;;;;;11.77;8.50;;;12.00;99.90;;;;;;5074855;28;20483;-60
2023/05/23 10:15:09;;;;;;;12.50;6.20;;;12.00;99.90;;;;;;5074392;28;20959;-60
2023/05/23 10:17:46;;;;;;;10.07;7.13;;;12.00;99.90;;;;;;5074967;28;20451;-62
2023/05/23 10:20:16;;;;;;;8.50;7.40;;;12.00;99.90;;;;;;5076020;28;20526;-60
2023/05/23 10:22:45;;;;;;;5.50;4.60;;;12.00;99.90;;;;;;5077013;28;20500;-61
2023/05/23 10:25:13;;;;;;;9.27;6.80;;;12.00;99.90;;;;;;5076868;28;20816;-61
2023/05/23 10:27:40;;;;;;;7.63;6.53;;;12.00;99.90;;;;;;5077922;28;20945;-62
2023/05/23 10:30:08;;;;;;;9.57;7.43;;;11.90;99.90;;;;;;5079315;28;20824;-61
2023/05/23 10:32:36;;;;;;;10.37;7.27;;;11.90;99.90;;;;;;5077664;28;20990;-62
2023/05/23 10:35:10;;;;;;;12.43;8.77;;;11.90;99.90;;;;;;5075744;28;20964;-62
2023/05/23 10:37:42;;;;;;;9.70;5.50;;;11.90;99.90;;;;;;5074614;28;20436;-62
2023/05/23 10:40:21;;;;;;;9.77;7.67;;;11.80;99.90;;;;;;5075421;28;20428;-62
2023/05/23 10:42:54;;;;;;;9.50;7.13;;;11.80;99.90;;;;;;5075440;28;20428;-62
2023/05/23 10:45:23;;;;;;;18.83;8.47;;;11.80;99.90;;;;;;5074770;28;20847;-62
2023/05/23 10:47:51;;;;;;;16.50;9.83;;;11.90;99.90;;;;;;5074667;28;20450;-62
2023/05/23 10:50:32;;;;;;;18.60;10.33;;;11.90;99.90;;;;;;5074217;28;20453;-61
2023/05/23 10:53:01;;;;;;;15.60;10.17;;;11.80;99.90;;;;;;5075120;28;20470;-61
2023/05/23 10:55:32;;;;;;;13.37;10.50;;;11.90;99.90;;;;;;5074318;28;20474;-62
2023/05/23 10:58:15;;;;;;;15.17;11.20;;;11.90;99.90;;;;;;5074488;28;20462;-60
2023/05/23 11:00:52;;;;;;;19.57;12.00;;;11.90;99.90;;;;;;5073456;28;20994;-61
2023/05/23 11:03:19;;;;;;;16.37;10.20;;;11.90;99.90;;;;;;5074397;28;20428;-60
2023/05/23 11:05:52;;;;;;;28.40;12.43;;;11.80;99.90;;;;;;5073528;28;20928;-61
2023/05/23 11:08:20;;;;;;;20.63;14.67;;;11.70;99.90;;;;;;5073626;28;20435;-61
2023/05/23 11:10:56;;;;;;;19.90;13.77;;;11.70;99.90;;;;;;5073379;28;20554;-60
2023/05/23 11:13:23;;;;;;;40.10;14.50;;;11.60;99.90;;;;;;5073591;28;20570;-62
2023/05/23 11:16:00;;;;;;;21.03;12.80;;;11.60;99.90;;;;;;5073900;28;20454;-61
2023/05/23 11:18:29;;;;;;;16.83;12.20;;;11.60;99.90;;;;;;5074086;28;20435;-62
2023/05/23 11:20:59;;;;;;;18.87;12.40;;;11.70;99.90;;;;;;5074691;28;20490;-61
2023/05/23 11:23:40;;;;;;;23.33;12.33;;;11.70;99.90;;;;;;5073684;28;20450;-60
2023/05/23 11:26:28;;;;;;;16.40;11.40;;;11.70;99.90;;;;;;5075705;28;20432;-61
2023/05/23 11:28:57;;;;;;;18.90;12.50;;;11.70;99.90;;;;;;5073910;28;20434;-62
2023/05/23 11:31:24;;;;;;;22.33;11.43;;;11.70;99.90;;;;;;5073426;28;20501;-62
2023/05/23 11:33:51;;;;;;;16.30;9.50;;;11.70;99.90;;;;;;5073646;28;20548;-61
2023/05/23 11:36:18;;;;;;;18.00;10.43;;;11.80;99.90;;;;;;5073016;28;20427;-62
2023/05/23 11:38:45;;;;;;;15.73;10.30;;;11.90;99.90;;;;;;5073177;28;20982;-61
2023/05/23 11:41:12;;;;;;;13.80;10.20;;;11.90;99.90;;;;;;5073996;28;20471;-62
2023/05/23 11:43:49;;;;;;;10.47;8.00;;;12.00;99.90;;;;;;5073705;28;20446;-60
2023/05/23 11:46:18;;;;;;;11.60;8.53;;;12.10;99.90;;;;;;5073534;28;20432;-61
2023/05/23 11:48:45;;;;;;;14.57;8.10;;;12.20;99.90;;;;;;5077910;28;20536;-60
2023/05/23 11:51:12;;;;;;;10.73;8.50;;;12.30;99.90;;;;;;5073348;28;20494;-61
2023/05/23 11:53:40;;;;;;;11.73;9.10;;;12.30;99.90;;;;;;5073780;28;20487;-61
2023/05/23 11:56:07;;;;;;;14.00;8.57;;;12.30;99.90;;;;;;5073231;28;20450;-60
2023/05/23 11:58:35;;;;;;;13.50;8.00;;;12.30;99.90;;;;;;5073827;28;20500;-61
2023/05/23 12:01:03;;;;;;;10.90;8.30;;;12.30;99.90;;;;;;5073576;28;20553;-59
2023/05/23 12:03:32;;;;;;;14.90;8.70;;;12.40;99.90;;;;;;5072671;28;20450;-61
2023/05/23 12:05:59;;;;;;;10.50;7.57;;;12.50;99.90;;;;;;5073123;28;20459;-59
2023/05/23 12:08:26;;;;;;;12.20;6.40;;;12.70;99.90;;;;;;5073462;28;20945;-60
2023/05/23 12:10:56;;;;;;;22.13;7.20;;;12.80;99.90;;;;;;5073348;28;20474;-61
2023/05/23 12:13:25;;;;;;;7.87;6.13;;;12.90;99.90;;;;;;5072977;28;20485;-61
2023/05/23 12:15:54;;;;;;;29.97;7.90;;;13.10;99.90;;;;;;5073086;28;20443;-61
2023/05/23 12:18:21;;;;;;;10.43;6.37;;;13.30;99.90;;;;;;5072647;28;20443;-61
2023/05/23 12:20:51;;;;;;;9.33;5.90;;;13.60;99.90;;;;;;5073358;28;20466;-60
2023/05/23 12:23:19;;;;;;;7.23;5.03;;;14.00;99.90;;;;;;5072576;28;20443;-60
2023/05/23 12:25:50;;;;;;;8.47;5.63;;;14.30;99.90;;;;;;5072944;28;20448;-62
2023/05/23 12:28:17;;;;;;;11.87;6.77;;;14.40;99.90;;;;;;5073246;28;20461;-61
2023/05/23 12:30:44;;;;;;;9.67;6.10;;;14.40;99.90;;;;;;5072945;28;20930;-61
2023/05/23 12:33:12;;;;;;;16.77;6.30;;;14.30;99.90;;;;;;5076245;28;20486;-62
2023/05/23 12:35:43;;;;;;;13.03;8.33;;;14.20;99.90;;;;;;5076924;28;20451;-61
2023/05/23 12:38:16;;;;;;;16.80;7.50;;;14.00;99.90;;;;;;5076750;28;20431;-63